Time;durP1;ratioP1;P1;durP2;ratioP2;P2;SDS_P1;SDS_P2;PMS_P1;PMS_P2;Temp;Humidity;BMP_temperature;BMP_pressure;BME280_temperature;BME280_humidity;BME280_pressure;Samples;Min_cycle;Max_cycle;Signal;HPM_P1;HPM_P2
2023/10/06 00:00:54;;;;;;;10.50;3.63;;;15.20;94.00;;;;;;5054855;28;20469;-57
2023/10/06 00:03:21;;;;;;;10.67;3.70;;;15.20;94.00;;;;;;5056236;28;20445;-58
2023/10/06 00:05:49;;;;;;;6.67;3.73;;;15.10;94.10;;;;;;5055774;28;20485;-57
2023/10/06 00:08:17;;;;;;;11.63;4.10;;;15.10;94.10;;;;;;5055241;28;21001;-57
2023/10/06 00:10:50;;;;;;;8.27;3.37;;;15.10;94.30;;;;;;5054926;28;20511;-57
2023/10/06 00:13:18;;;;;;;10.50;3.90;;;15.10;94.30;;;;;;5054853;28;20429;-57
2023/10/06 00:15:49;;;;;;;8.60;4.53;;;15.00;94.40;;;;;;5054654;28;20455;-57
2023/10/06 00:18:19;;;;;;;6.23;3.40;;;15.00;94.40;;;;;;5054664;28;20796;-57
2023/10/06 00:20:48;;;;;;;8.00;3.80;;;14.90;94.40;;;;;;5054572;28;20583;-57
2023/10/06 00:23:20;;;;;;;6.47;3.40;;;15.00;94.60;;;;;;5054327;28;20971;-57
2023/10/06 00:25:51;;;;;;;12.33;3.60;;;15.00;94.70;;;;;;5054541;28;20469;-56
2023/10/06 00:28:19;;;;;;;11.70;3.67;;;14.90;94.50;;;;;;5054766;28;20426;-57
2023/10/06 00:30:55;;;;;;;7.80;3.83;;;14.90;94.60;;;;;;5054014;28;20963;-57
2023/10/06 00:33:26;;;;;;;9.30;3.67;;;14.90;94.70;;;;;;5054469;28;20464;-57
2023/10/06 00:35:52;;;;;;;11.83;3.60;;;14.90;94.70;;;;;;5054150;28;20492;-57
2023/10/06 00:38:20;;;;;;;5.80;3.47;;;14.90;94.80;;;;;;5054262;28;20449;-57
2023/10/06 00:40:51;;;;;;;7.70;3.60;;;14.80;94.70;;;;;;5054101;28;20527;-57
2023/10/06 00:43:34;;;;;;;9.10;4.00;;;14.80;94.70;;;;;;5054085;28;20850;-57
2023/10/06 00:46:04;;;;;;;7.63;3.83;;;14.80;94.70;;;;;;5053939;28;20465;-57
2023/10/06 00:48:32;;;;;;;7.60;3.23;;;14.70;94.80;;;;;;5053945;28;20449;-57
2023/10/06 00:51:01;;;;;;;8.40;3.47;;;14.70;94.90;;;;;;5053782;28;20473;-57
2023/10/06 00:53:31;;;;;;;10.37;4.00;;;14.70;95.00;;;;;;5053975;28;20524;-57
2023/10/06 00:56:00;;;;;;;9.57;3.83;;;14.70;95.00;;;;;;5053827;28;20422;-57
2023/10/06 00:58:33;;;;;;;11.67;4.10;;;14.70;95.00;;;;;;5053807;28;20480;-57
2023/10/06 01:01:05;;;;;;;9.93;4.03;;;14.70;95.10;;;;;;5053815;28;20469;-57
2023/10/06 01:03:33;;;;;;;6.90;3.57;;;14.70;95.10;;;;;;5053767;28;20430;-57
2023/10/06 01:06:06;;;;;;;8.10;3.40;;;14.70;95.00;;;;;;5054227;28;20535;-57
2023/10/06 01:08:33;;;;;;;7.50;3.40;;;14.70;95.10;;;;;;5053803;28;20444;-57
2023/10/06 01:11:11;;;;;;;5.73;3.33;;;14.70;95.10;;;;;;5053547;28;20893;-57
2023/10/06 01:13:40;;;;;;;8.07;3.37;;;14.70;95.00;;;;;;5053488;28;20430;-57
2023/10/06 01:16:11;;;;;;;5.70;3.40;;;14.60;95.00;;;;;;5053527;28;20485;-57
2023/10/06 01:18:41;;;;;;;9.40;4.60;;;14.60;95.00;;;;;;5053529;28;20422;-57
2023/10/06 01:21:17;;;;;;;6.53;3.47;;;14.60;95.20;;;;;;5053364;28;20479;-57
2023/10/06 01:23:46;;;;;;;7.97;3.50;;;14.60;95.20;;;;;;5053426;28;20440;-56
2023/10/06 01:26:14;;;;;;;6.43;3.50;;;14.50;95.10;;;;;;5053370;28;20481;-57
2023/10/06 01:28:45;;;;;;;6.30;3.80;;;14.50;95.20;;;;;;5053377;28;20477;-57
2023/10/06 01:31:12;;;;;;;7.17;4.13;;;14.50;95.20;;;;;;5053319;28;20465;-57
2023/10/06 01:33:39;;;;;;;7.67;4.10;;;14.50;95.20;;;;;;5053243;28;20441;-57
2023/10/06 01:36:13;;;;;;;6.53;4.50;;;14.50;95.10;;;;;;5053774;28;20528;-57
2023/10/06 01:38:42;;;;;;;7.27;3.73;;;14.50;95.10;;;;;;5053048;28;20896;-57
2023/10/06 01:41:10;;;;;;;8.33;3.90;;;14.50;95.10;;;;;;5053150;28;20500;-57
2023/10/06 01:43:38;;;;;;;7.40;3.87;;;14.50;95.10;;;;;;5053228;28;20453;-57
2023/10/06 01:46:07;;;;;;;8.70;3.97;;;14.50;95.20;;;;;;5053793;28;20457;-57
2023/10/06 01:48:36;;;;;;;7.03;3.77;;;14.50;95.30;;;;;;5057332;28;20456;-57
2023/10/06 01:51:08;;;;;;;9.67;4.43;;;14.50;95.20;;;;;;5056876;28;20491;-57
2023/10/06 01:53:40;;;;;;;7.67;3.80;;;14.50;95.20;;;;;;5057294;28;20484;-57
2023/10/06 01:56:08;;;;;;;6.50;3.90;;;14.50;95.20;;;;;;5057239;28;20422;-57
2023/10/06 01:58:37;;;;;;;10.50;3.93;;;14.40;95.20;;;;;;5056948;28;20814;-57
2023/10/06 02:01:06;;;;;;;5.67;3.73;;;14.40;95.20;;;;;;5056763;28;21005;-57
2023/10/06 02:03:38;;;;;;;9.07;3.90;;;14.50;95.20;;;;;;5057142;28;20442;-57
2023/10/06 02:06:12;;;;;;;8.63;4.20;;;14.50;95.20;;;;;;5057036;28;20472;-57
2023/10/06 02:08:39;;;;;;;7.47;3.73;;;14.50;95.20;;;;;;5057018;28;20483;-56
2023/10/06 02:11:08;;;;;;;9.13;3.57;;;14.50;95.60;;;;;;5056983;28;20554;-57
2023/10/06 02:13:36;;;;;;;10.73;3.47;;;14.50;95.20;;;;;;5056560;28;20445;-57
2023/10/06 02:16:04;;;;;;;9.67;3.43;;;14.50;95.10;;;;;;5056916;28;20445;-57
2023/10/06 02:18:36;;;;;;;5.57;3.27;;;14.50;95.10;;;;;;5056925;28;20615;-57
2023/10/06 02:21:10;;;;;;;10.80;3.73;;;14.50;95.10;;;;;;5057101;28;20500;-57
2023/10/06 02:23:37;;;;;;;4.80;3.43;;;14.50;95.20;;;;;;5056728;28;20479;-56
2023/10/06 02:26:08;;;;;;;6.37;3.13;;;14.40;95.10;;;;;;5056329;28;20851;-57
2023/10/06 02:28:40;;;;;;;7.27;3.27;;;14.40;95.20;;;;;;5056664;28;20426;-57
2023/10/06 02:31:07;;;;;;;15.03;4.37;;;14.40;95.20;;;;;;5056595;28;20500;-57
2023/10/06 02:33:36;;;;;;;7.60;3.23;;;14.40;95.20;;;;;;5056616;28;20535;-57
2023/10/06 02:36:13;;;;;;;10.10;3.47;;;14.40;95.10;;;;;;5056060;28;20461;-57
2023/10/06 02:38:46;;;;;;;8.87;3.60;;;14.40;95.20;;;;;;5056526;28;20426;-57
2023/10/06 02:41:18;;;;;;;6.00;2.63;;;14.40;95.10;;;;;;5056445;28;20540;-56
2023/10/06 02:43:47;;;;;;;9.80;3.90;;;14.40;95.10;;;;;;5056332;28;20771;-56
2023/10/06 02:46:15;;;;;;;11.93;3.80;;;14.30;95.00;;;;;;5056441;28;20441;-57
2023/10/06 02:48:48;;;;;;;10.33;3.93;;;14.30;95.00;;;;;;5056493;28;20450;-57
2023/10/06 02:51:28;;;;;;;6.10;3.00;;;14.30;95.10;;;;;;5056023;28;21002;-57
2023/10/06 02:54:09;;;;;;;8.43;3.20;;;14.30;95.20;;;;;;5056268;28;20425;-56
2023/10/06 02:56:37;;;;;;;6.43;3.27;;;14.20;95.20;;;;;;5055506;28;20896;-57
2023/10/06 02:59:20;;;;;;;10.40;3.70;;;14.20;95.30;;;;;;5055902;28;20455;-57
2023/10/06 03:01:51;;;;;;;10.80;4.30;;;14.20;95.30;;;;;;5055732;28;20802;-57
2023/10/06 03:04:21;;;;;;;5.57;3.03;;;14.20;95.30;;;;;;5056044;28;20843;-57
2023/10/06 03:06:53;;;;;;;8.40;4.17;;;14.30;95.30;;;;;;5056056;28;20492;-57
2023/10/06 03:09:20;;;;;;;11.43;3.43;;;14.20;95.30;;;;;;5055848;28;20437;-57
2023/10/06 03:11:49;;;;;;;14.60;3.40;;;14.20;95.40;;;;;;5055759;28;20540;-57
2023/10/06 03:14:24;;;;;;;9.07;3.40;;;14.20;95.40;;;;;;5055890;28;20448;-56
2023/10/06 03:16:51;;;;;;;5.60;3.30;;;14.20;95.40;;;;;;5056036;28;20428;-57
2023/10/06 03:19:24;;;;;;;7.17;3.80;;;14.30;95.30;;;;;;5056064;28;20952;-57
2023/10/06 03:21:53;;;;;;;5.43;2.93;;;14.30;95.30;;;;;;5058390;28;20437;-57
2023/10/06 03:24:31;;;;;;;5.60;3.47;;;14.30;95.30;;;;;;5057282;28;20446;-56
2023/10/06 03:26:58;;;;;;;8.50;3.90;;;14.30;95.30;;;;;;5056464;28;20465;-56
2023/10/06 03:29:43;;;;;;;5.27;3.17;;;14.30;95.30;;;;;;5055341;28;20914;-56
2023/10/06 03:32:13;;;;;;;11.80;3.67;;;14.30;95.30;;;;;;5055341;28;20833;-56
2023/10/06 03:34:43;;;;;;;9.40;3.43;;;14.30;95.30;;;;;;5055418;28;20862;-57
2023/10/06 03:37:15;;;;;;;6.90;3.10;;;14.30;95.30;;;;;;5055057;28;20821;-56
2023/10/06 03:39:51;;;;;;;13.73;3.70;;;14.30;95.30;;;;;;5055523;28;20465;-57
2023/10/06 03:42:20;;;;;;;6.63;3.17;;;14.30;95.30;;;;;;5055803;28;20516;-57
2023/10/06 03:44:53;;;;;;;8.57;2.97;;;14.20;95.30;;;;;;5055315;28;20445;-56
2023/10/06 03:47:20;;;;;;;6.50;3.53;;;14.30;95.30;;;;;;5055183;28;20475;-56
2023/10/06 03:49:47;;;;;;;11.60;4.20;;;14.30;95.30;;;;;;5055127;28;20564;-57
2023/10/06 03:52:15;;;;;;;6.90;3.30;;;14.30;95.30;;;;;;5055295;28;20442;-56
2023/10/06 03:54:42;;;;;;;7.50;3.47;;;14.20;95.30;;;;;;5055165;28;20491;-57
2023/10/06 03:57:11;;;;;;;5.27;4.10;;;14.20;95.40;;;;;;5055026;28;20465;-57
2023/10/06 03:59:39;;;;;;;7.83;3.50;;;14.20;95.40;;;;;;5054985;28;20515;-57
2023/10/06 04:02:08;;;;;;;8.43;3.50;;;14.20;95.30;;;;;;5055033;28;20494;-56
2023/10/06 04:04:37;;;;;;;11.90;3.27;;;14.20;95.30;;;;;;5055035;28;20449;-57
2023/10/06 04:07:06;;;;;;;4.23;2.87;;;14.20;95.30;;;;;;5055215;28;20573;-57
2023/10/06 04:09:33;;;;;;;7.20;3.07;;;14.20;95.30;;;;;;5054102;28;20815;-56
2023/10/06 04:12:01;;;;;;;7.53;4.30;;;14.20;95.40;;;;;;5054775;28;20943;-57
2023/10/06 04:14:31;;;;;;;8.93;3.27;;;14.20;95.40;;;;;;5055318;28;20847;-56
2023/10/06 04:17:01;;;;;;;5.67;3.70;;;14.20;95.40;;;;;;5055672;28;20433;-56
2023/10/06 04:19:29;;;;;;;5.87;2.90;;;14.20;95.40;;;;;;5055417;28;20466;-56
2023/10/06 04:21:56;;;;;;;5.27;3.10;;;14.10;95.40;;;;;;5056573;28;20474;-56
2023/10/06 04:24:22;;;;;;;6.13;3.53;;;14.00;95.40;;;;;;5056323;28;20822;-56
2023/10/06 04:26:49;;;;;;;8.30;3.70;;;14.00;95.60;;;;;;5057672;28;20951;-56
2023/10/06 04:29:16;;;;;;;10.10;3.67;;;14.00;95.60;;;;;;5055027;28;20445;-56
2023/10/06 04:31:42;;;;;;;10.80;3.80;;;14.00;95.70;;;;;;5054381;28;20502;-56
2023/10/06 04:34:10;;;;;;;7.97;3.93;;;14.00;95.60;;;;;;5054329;28;20445;-57
2023/10/06 04:36:38;;;;;;;7.03;3.70;;;13.90;95.70;;;;;;5054186;28;20540;-56
2023/10/06 04:39:09;;;;;;;8.93;3.63;;;13.90;95.80;;;;;;5054094;28;20814;-57
2023/10/06 04:41:36;;;;;;;5.87;3.57;;;13.90;95.80;;;;;;5054241;28;20462;-57
2023/10/06 04:44:03;;;;;;;7.47;3.60;;;13.80;95.80;;;;;;5053658;28;20450;-56
2023/10/06 04:46:30;;;;;;;4.17;2.93;;;13.80;95.90;;;;;;5053921;28;20472;-56
2023/10/06 04:48:56;;;;;;;7.33;3.43;;;13.80;95.90;;;;;;5053649;28;20838;-56
2023/10/06 04:51:25;;;;;;;4.87;3.20;;;13.80;96.00;;;;;;5053469;28;20518;-56
2023/10/06 04:53:54;;;;;;;6.20;4.07;;;13.80;95.90;;;;;;5053950;28;20568;-56
2023/10/06 04:56:22;;;;;;;8.00;3.50;;;13.80;95.90;;;;;;5054035;28;20422;-56
2023/10/06 04:58:49;;;;;;;7.80;3.30;;;13.80;95.90;;;;;;5053227;28;20453;-56
2023/10/06 05:01:16;;;;;;;7.93;3.57;;;13.80;96.00;;;;;;5053720;28;20470;-56
2023/10/06 05:03:43;;;;;;;12.93;3.60;;;13.70;96.00;;;;;;5053758;28;20446;-56
2023/10/06 05:06:13;;;;;;;9.67;3.60;;;13.80;96.00;;;;;;5053750;28;20441;-56
2023/10/06 05:08:41;;;;;;;10.10;3.80;;;13.80;96.00;;;;;;5053868;28;20524;-56
2023/10/06 05:11:11;;;;;;;12.90;3.67;;;13.80;96.00;;;;;;5053588;28;20527;-56
2023/10/06 05:13:38;;;;;;;10.00;4.00;;;13.70;95.90;;;;;;5053259;28;20475;-56
2023/10/06 05:16:04;;;;;;;10.27;4.60;;;13.70;95.90;;;;;;5053597;28;20492;-56
2023/10/06 05:18:33;;;;;;;9.37;3.60;;;13.70;95.90;;;;;;5053309;28;20974;-56
2023/10/06 05:20:59;;;;;;;11.90;4.50;;;13.70;95.80;;;;;;5053312;28;20500;-56
2023/10/06 05:23:26;;;;;;;10.27;3.50;;;13.70;95.90;;;;;;5053423;28;20437;-56
2023/10/06 05:25:58;;;;;;;10.73;3.80;;;13.70;95.80;;;;;;5053082;28;20948;-56
2023/10/06 05:28:31;;;;;;;5.80;3.40;;;13.70;95.90;;;;;;5053357;28;20519;-56
2023/10/06 05:30:58;;;;;;;6.37;3.70;;;13.60;95.90;;;;;;5053673;28;20465;-56
2023/10/06 05:33:26;;;;;;;4.60;3.60;;;13.60;95.90;;;;;;5053258;28;20445;-56
2023/10/06 05:35:52;;;;;;;5.23;3.67;;;13.60;96.00;;;;;;5052877;28;20469;-56
2023/10/06 05:38:19;;;;;;;6.17;3.70;;;13.70;96.00;;;;;;5053247;28;20491;-56
2023/10/06 05:40:48;;;;;;;11.07;3.70;;;13.60;96.00;;;;;;5053226;28;20470;-56
2023/10/06 05:43:16;;;;;;;7.87;3.87;;;13.70;96.00;;;;;;5053011;28;20485;-56
2023/10/06 05:45:44;;;;;;;9.17;4.30;;;13.60;95.90;;;;;;5053754;28;20456;-56
2023/10/06 05:48:12;;;;;;;10.57;5.00;;;13.60;96.00;;;;;;5053156;28;20473;-56
2023/10/06 05:50:40;;;;;;;8.60;3.77;;;13.60;96.10;;;;;;5053021;28;20480;-56
2023/10/06 05:53:12;;;;;;;11.73;4.23;;;13.60;96.10;;;;;;5053188;28;20539;-56
2023/10/06 05:55:41;;;;;;;11.87;3.70;;;13.60;96.10;;;;;;5052830;28;20426;-56
2023/10/06 05:58:14;;;;;;;9.33;4.37;;;13.70;96.10;;;;;;5053035;28;20442;-56
2023/10/06 06:00:50;;;;;;;10.67;4.30;;;13.70;96.00;;;;;;5052683;28;20972;-56
2023/10/06 06:03:20;;;;;;;8.57;3.60;;;13.70;95.90;;;;;;5053103;28;20487;-56
2023/10/06 06:05:47;;;;;;;12.23;3.90;;;13.70;95.90;;;;;;5053054;28;20446;-56
2023/10/06 06:08:14;;;;;;;10.80;4.10;;;13.70;95.90;;;;;;5052934;28;20517;-56
2023/10/06 06:10:41;;;;;;;13.50;4.27;;;13.70;95.90;;;;;;5052797;28;20472;-56
2023/10/06 06:13:08;;;;;;;10.80;5.10;;;13.80;95.90;;;;;;5052888;28;20450;-56
2023/10/06 06:15:38;;;;;;;10.43;4.53;;;13.80;95.80;;;;;;5053144;28;20438;-56
2023/10/06 06:18:05;;;;;;;10.63;4.97;;;13.80;95.90;;;;;;5052908;28;20482;-56
2023/10/06 06:20:33;;;;;;;9.87;3.93;;;13.80;95.80;;;;;;5052874;28;20975;-56
2023/10/06 06:23:02;;;;;;;6.73;3.63;;;13.90;95.80;;;;;;5052953;28;20457;-55
2023/10/06 06:25:29;;;;;;;13.00;5.23;;;13.90;95.80;;;;;;5053059;28;20480;-56
2023/10/06 06:27:59;;;;;;;10.50;3.57;;;13.90;95.80;;;;;;5052826;28;20484;-56
2023/10/06 06:30:26;;;;;;;9.50;4.17;;;13.90;96.10;;;;;;5052525;28;20466;-56
2023/10/06 06:32:54;;;;;;;10.20;4.10;;;14.00;95.80;;;;;;5054717;28;20822;-56
2023/10/06 06:35:21;;;;;;;13.40;4.13;;;14.00;95.80;;;;;;5057642;28;20446;-56
2023/10/06 06:37:52;;;;;;;11.77;4.60;;;14.00;95.80;;;;;;5057332;28;20467;-56
2023/10/06 06:40:20;;;;;;;13.27;5.23;;;14.10;95.90;;;;;;5056942;28;20468;-56
2023/10/06 06:42:48;;;;;;;7.60;4.23;;;14.20;96.00;;;;;;5056890;28;20452;-56
2023/10/06 06:45:14;;;;;;;6.93;3.87;;;14.20;95.90;;;;;;5057343;28;20536;-56
2023/10/06 06:47:43;;;;;;;13.60;3.77;;;14.30;95.90;;;;;;5057272;28;20445;-56
2023/10/06 06:50:12;;;;;;;5.17;3.57;;;14.40;95.90;;;;;;5057255;28;20547;-56
2023/10/06 06:52:39;;;;;;;10.00;3.47;;;14.50;95.80;;;;;;5057302;28;20451;-56
2023/10/06 06:55:12;;;;;;;7.80;3.73;;;14.60;95.70;;;;;;5057767;28;20855;-56
2023/10/06 06:57:43;;;;;;;8.33;2.93;;;14.70;95.50;;;;;;5056814;28;20537;-57
2023/10/06 07:00:15;;;;;;;11.03;3.23;;;14.80;95.40;;;;;;5056065;28;20497;-56
2023/10/06 07:02:43;;;;;;;6.67;3.03;;;14.90;95.10;;;;;;5055893;28;20919;-56
2023/10/06 07:05:10;;;;;;;11.70;3.07;;;15.00;94.90;;;;;;5056063;28;20817;-56
2023/10/06 07:07:39;;;;;;;10.67;3.90;;;15.10;94.70;;;;;;5055874;28;20442;-56
2023/10/06 07:10:10;;;;;;;6.20;3.03;;;15.20;94.30;;;;;;5055864;28;20830;-56
2023/10/06 07:12:37;;;;;;;9.77;3.37;;;15.30;94.10;;;;;;5055923;28;20430;-57
2023/10/06 07:15:09;;;;;;;14.87;3.30;;;15.30;93.80;;;;;;5055980;28;20449;-56
2023/10/06 07:17:36;;;;;;;7.20;3.10;;;15.30;93.70;;;;;;5055763;28;20426;-56
2023/10/06 07:20:04;;;;;;;8.30;3.20;;;15.40;93.80;;;;;;5055484;28;20989;-56
2023/10/06 07:22:31;;;;;;;14.20;4.20;;;15.40;93.70;;;;;;5055851;28;20481;-56
2023/10/06 07:24:58;;;;;;;10.77;4.00;;;15.50;93.40;;;;;;5055657;28;20800;-56
2023/10/06 07:27:26;;;;;;;6.70;3.57;;;15.50;93.40;;;;;;5055616;28;20445;-56
2023/10/06 07:29:53;;;;;;;6.03;2.90;;;15.60;93.50;;;;;;5055522;28;20905;-56
2023/10/06 07:32:19;;;;;;;6.70;2.83;;;15.70;93.40;;;;;;5055190;28;20931;-56
2023/10/06 07:34:47;;;;;;;6.93;3.80;;;15.80;93.50;;;;;;5055113;28;20457;-56
2023/10/06 07:37:14;;;;;;;10.67;3.33;;;15.80;93.10;;;;;;5055498;28;20500;-57
2023/10/06 07:39:40;;;;;;;8.50;3.33;;;15.90;93.00;;;;;;5055257;28;20464;-57
2023/10/06 07:42:07;;;;;;;6.80;3.77;;;15.90;92.60;;;;;;5055313;28;20446;-57
2023/10/06 07:44:35;;;;;;;11.40;3.50;;;16.00;92.70;;;;;;5054006;28;20449;-56
2023/10/06 07:47:03;;;;;;;13.83;3.20;;;16.00;92.60;;;;;;5055247;28;20449;-57
2023/10/06 07:49:34;;;;;;;12.10;3.60;;;16.00;92.60;;;;;;5054992;28;20492;-57
2023/10/06 07:52:03;;;;;;;7.33;3.17;;;16.00;92.50;;;;;;5054889;28;20644;-56
2023/10/06 07:54:32;;;;;;;8.40;3.23;;;16.10;92.30;;;;;;5055069;28;20441;-56
2023/10/06 07:56:59;;;;;;;11.00;3.17;;;16.10;92.40;;;;;;5055131;28;20889;-57
2023/10/06 07:59:26;;;;;;;7.47;3.33;;;16.10;92.40;;;;;;5054932;28;20462;-57
2023/10/06 08:01:54;;;;;;;10.60;3.20;;;16.20;92.50;;;;;;5054926;28;20499;-57
2023/10/06 08:04:22;;;;;;;4.83;3.30;;;16.20;92.10;;;;;;5055024;28;20446;-57
2023/10/06 08:06:49;;;;;;;9.80;3.40;;;16.20;92.20;;;;;;5054931;28;20445;-57
2023/10/06 08:09:17;;;;;;;8.00;3.87;;;16.20;92.30;;;;;;5054676;28;20477;-57
2023/10/06 08:11:43;;;;;;;5.67;2.80;;;16.30;92.50;;;;;;5054700;28;20465;-57
2023/10/06 08:14:13;;;;;;;10.03;3.60;;;16.20;92.10;;;;;;5054285;28;20897;-57
2023/10/06 08:16:40;;;;;;;8.43;3.43;;;16.30;92.60;;;;;;5054688;28;20479;-57
2023/10/06 08:19:08;;;;;;;6.40;3.20;;;16.30;92.60;;;;;;5054623;28;20442;-57
2023/10/06 08:21:37;;;;;;;5.10;2.80;;;16.30;92.50;;;;;;5054573;28;20446;-57
2023/10/06 08:24:05;;;;;;;8.50;4.03;;;16.40;92.80;;;;;;5054418;28;20449;-57
2023/10/06 08:26:33;;;;;;;10.30;3.07;;;16.40;92.80;;;;;;5054429;28;20453;-57
2023/10/06 08:29:00;;;;;;;7.80;3.33;;;16.40;92.50;;;;;;5054406;28;20485;-57
2023/10/06 08:31:28;;;;;;;11.23;3.70;;;16.50;92.20;;;;;;5053899;28;20465;-57
2023/10/06 08:33:55;;;;;;;8.13;3.50;;;16.50;92.20;;;;;;5053898;28;20449;-56
2023/10/06 08:36:23;;;;;;;6.80;2.80;;;16.60;92.30;;;;;;5054231;28;20460;-57
2023/10/06 08:38:51;;;;;;;5.70;2.90;;;16.60;91.90;;;;;;5054251;28;20441;-57
2023/10/06 08:41:26;;;;;;;11.50;4.00;;;16.70;91.80;;;;;;5054528;28;20481;-57
2023/10/06 08:43:54;;;;;;;7.10;3.57;;;16.70;91.70;;;;;;5054092;28;20436;-57
2023/10/06 08:46:22;;;;;;;10.57;3.37;;;16.80;91.70;;;;;;5054138;28;20951;-57
2023/10/06 08:48:50;;;;;;;9.60;3.20;;;16.90;91.60;;;;;;5053935;28;20481;-57
2023/10/06 08:51:22;;;;;;;11.70;3.20;;;17.00;91.50;;;;;;5053772;28;20523;-57
2023/10/06 08:53:51;;;;;;;11.53;3.70;;;17.10;91.30;;;;;;5053980;28;20434;-57
2023/10/06 08:56:17;;;;;;;8.33;3.00;;;17.20;91.00;;;;;;5053313;28;20442;-57
2023/10/06 08:58:45;;;;;;;10.23;3.53;;;17.10;90.30;;;;;;5053505;28;20954;-57
2023/10/06 09:01:13;;;;;;;9.17;3.43;;;17.10;89.80;;;;;;5054096;28;20520;-57
2023/10/06 09:03:40;;;;;;;7.27;3.03;;;17.10;90.70;;;;;;5053496;28;20963;-57
2023/10/06 09:06:08;;;;;;;9.60;3.60;;;17.20;90.00;;;;;;5053760;28;20437;-58
2023/10/06 09:08:40;;;;;;;9.93;3.70;;;17.20;90.10;;;;;;5053517;28;20527;-57
2023/10/06 09:11:09;;;;;;;8.90;3.20;;;17.30;89.80;;;;;;5053526;28;20474;-57
2023/10/06 09:13:37;;;;;;;10.00;4.33;;;17.30;89.60;;;;;;5053407;28;20480;-57
2023/10/06 09:16:06;;;;;;;9.03;3.03;;;17.50;89.60;;;;;;5053465;28;20533;-57
2023/10/06 09:18:34;;;;;;;5.33;2.60;;;17.50;89.00;;;;;;5053432;28;20515;-57
2023/10/06 09:21:12;;;;;;;5.60;2.90;;;17.60;90.20;;;;;;5053383;28;20466;-57
2023/10/06 09:23:40;;;;;;;8.80;3.00;;;17.70;89.90;;;;;;5053461;28;20551;-58
2023/10/06 09:26:11;;;;;;;9.33;2.87;;;17.80;89.20;;;;;;5053376;28;20473;-58
2023/10/06 09:28:48;;;;;;;7.23;3.70;;;17.90;87.20;;;;;;5053085;28;20473;-58
2023/10/06 09:31:15;;;;;;;13.20;3.70;;;18.00;85.60;;;;;;5053336;28;20500;-58
2023/10/06 09:33:44;;;;;;;7.57;3.27;;;18.00;86.40;;;;;;5053412;28;20446;-57
2023/10/06 09:36:16;;;;;;;8.03;3.10;;;18.10;86.80;;;;;;5053337;28;20445;-58
2023/10/06 09:38:44;;;;;;;7.27;3.93;;;18.20;85.60;;;;;;5053384;28;20513;-57
2023/10/06 09:41:13;;;;;;;10.10;3.30;;;18.30;84.10;;;;;;5053492;28;20469;-58
2023/10/06 09:43:41;;;;;;;6.27;2.93;;;18.40;83.40;;;;;;5054114;28;20488;-58
2023/10/06 09:46:11;;;;;;;7.83;3.30;;;18.50;83.80;;;;;;5055820;28;20485;-58
2023/10/06 09:48:39;;;;;;;9.87;4.03;;;18.60;83.40;;;;;;5054265;28;20488;-58
2023/10/06 09:51:07;;;;;;;6.87;2.67;;;18.70;81.40;;;;;;5053770;28;20474;-58
2023/10/06 09:53:38;;;;;;;5.43;3.50;;;18.90;82.20;;;;;;5054175;28;20445;-57
2023/10/06 09:56:07;;;;;;;6.77;2.83;;;19.10;81.80;;;;;;5053879;28;20429;-58
2023/10/06 09:58:36;;;;;;;9.10;3.60;;;19.40;78.30;;;;;;5053190;28;20935;-58
2023/10/06 10:01:03;;;;;;;7.83;3.40;;;19.70;77.00;;;;;;5054521;28;20493;-58
2023/10/06 10:03:33;;;;;;;7.27;3.30;;;19.90;74.90;;;;;;5053970;28;20954;-58
2023/10/06 10:06:04;;;;;;;9.07;2.80;;;19.90;73.20;;;;;;5056529;28;20520;-58
2023/10/06 10:08:32;;;;;;;6.67;3.20;;;19.80;75.10;;;;;;5056785;28;20425;-58
2023/10/06 10:11:02;;;;;;;4.30;2.60;;;19.70;74.10;;;;;;5056963;28;20468;-57
2023/10/06 10:14:07;;;;;;;4.10;2.60;;;19.70;75.90;;;;;;5056944;28;20473;-58
2023/10/06 10:16:47;;;;;;;6.57;2.70;;;19.90;76.00;;;;;;5056975;28;20516;-58
2023/10/06 10:19:20;;;;;;;12.80;3.43;;;20.10;76.00;;;;;;5056922;28;20483;-58
2023/10/06 10:21:47;;;;;;;8.03;3.30;;;20.40;76.90;;;;;;5056818;28;20521;-58
2023/10/06 10:24:20;;;;;;;5.27;2.70;;;20.70;71.00;;;;;;5056801;28;20516;-58
2023/10/06 10:26:50;;;;;;;7.03;2.93;;;21.20;70.30;;;;;;5056779;28;20425;-58
2023/10/06 10:29:31;;;;;;;8.30;2.57;;;21.60;70.60;;;;;;5056574;28;20468;-58
2023/10/06 10:32:01;;;;;;;5.53;2.87;;;22.10;65.60;;;;;;5056349;28;20441;-57
2023/10/06 10:34:33;;;;;;;5.47;2.57;;;22.50;62.90;;;;;;5056572;28;20445;-58
2023/10/06 10:37:15;;;;;;;8.30;3.23;;;23.00;60.60;;;;;;5056641;28;20444;-58
2023/10/06 10:39:47;;;;;;;6.83;2.77;;;23.20;57.10;;;;;;5056351;28;20461;-58
2023/10/06 10:42:17;;;;;;;6.07;3.10;;;22.80;58.20;;;;;;5056481;28;20449;-58
2023/10/06 10:44:47;;;;;;;9.60;2.90;;;22.90;57.00;;;;;;5056907;28;20469;-58
2023/10/06 10:47:14;;;;;;;8.83;3.10;;;23.00;57.00;;;;;;5056291;28;20441;-58
2023/10/06 10:49:44;;;;;;;6.47;3.00;;;23.40;58.00;;;;;;5055891;28;20492;-58
2023/10/06 10:52:11;;;;;;;4.00;2.17;;;23.60;57.40;;;;;;5056018;28;20422;-58
2023/10/06 10:54:40;;;;;;;10.70;2.63;;;23.90;57.20;;;;;;5056148;28;20437;-57
2023/10/06 10:57:09;;;;;;;7.77;2.83;;;24.40;54.90;;;;;;5056136;28;20860;-56
2023/10/06 11:00:13;;;;;;;9.53;2.53;;;24.70;54.40;;;;;;5056068;28;20462;-56
2023/10/06 11:02:41;;;;;;;10.20;2.93;;;25.10;53.40;;;;;;5056072;28;20426;-56
2023/10/06 11:05:09;;;;;;;5.80;2.80;;;25.40;51.60;;;;;;5056039;28;20445;-56
2023/10/06 11:07:36;;;;;;;6.40;3.00;;;25.20;50.30;;;;;;5055944;28;20449;-56
2023/10/06 11:10:04;;;;;;;6.30;2.70;;;24.80;49.90;;;;;;5055797;28;20485;-56
2023/10/06 11:12:31;;;;;;;7.53;3.00;;;24.60;51.10;;;;;;5055847;28;20499;-57
2023/10/06 11:15:13;;;;;;;5.13;2.63;;;24.50;51.60;;;;;;5055770;28;20864;-56
2023/10/06 11:17:43;;;;;;;5.53;3.03;;;24.60;52.90;;;;;;5055550;28;20426;-57
2023/10/06 11:20:15;;;;;;;10.77;3.43;;;24.70;51.40;;;;;;5055697;28;20454;-57
2023/10/06 11:22:53;;;;;;;6.90;3.07;;;24.90;52.40;;;;;;5055740;28;20430;-57
2023/10/06 11:25:26;;;;;;;7.40;3.10;;;25.30;51.20;;;;;;5055724;28;20459;-57
2023/10/06 11:28:03;;;;;;;8.03;3.73;;;25.20;49.10;;;;;;5055710;28;20469;-56
2023/10/06 11:30:32;;;;;;;7.10;3.50;;;25.10;50.60;;;;;;5055988;28;20495;-57
2023/10/06 11:33:02;;;;;;;7.23;3.37;;;24.90;50.50;;;;;;5055639;28;20549;-57
2023/10/06 11:35:30;;;;;;;8.40;3.10;;;24.90;50.30;;;;;;5068609;28;20472;-56
2023/10/06 11:37:57;;;;;;;8.63;3.90;;;24.90;51.00;;;;;;5075560;28;20448;-57
2023/10/06 11:40:25;;;;;;;8.00;3.53;;;25.20;51.10;;;;;;5075288;28;20464;-55
2023/10/06 11:42:52;;;;;;;9.17;3.63;;;25.40;49.80;;;;;;5075404;28;20539;-56
2023/10/06 11:45:27;;;;;;;8.97;3.50;;;25.10;50.20;;;;;;5075168;28;20448;-56
2023/10/06 11:47:55;;;;;;;9.40;3.30;;;24.80;50.60;;;;;;5076121;28;20425;-56
2023/10/06 11:50:25;;;;;;;7.70;3.70;;;25.00;51.30;;;;;;5074875;28;20921;-56
2023/10/06 11:52:52;;;;;;;11.40;3.80;;;25.50;50.90;;;;;;5075171;28;20445;-56
2023/10/06 11:55:29;;;;;;;8.00;3.20;;;25.80;50.10;;;;;;5075308;28;20448;-56
2023/10/06 11:57:58;;;;;;;8.80;3.30;;;26.20;48.60;;;;;;5074810;28;20898;-56
2023/10/06 12:00:36;;;;;;;8.20;4.20;;;26.30;47.40;;;;;;5074804;28;20847;-56
2023/10/06 12:03:03;;;;;;;8.73;3.97;;;26.80;48.20;;;;;;5074863;28;20449;-56
2023/10/06 12:05:31;;;;;;;6.40;3.40;;;27.30;47.30;;;;;;5074587;28;20798;-57
2023/10/06 12:08:03;;;;;;;5.37;3.27;;;27.90;46.00;;;;;;5074803;28;20498;-57
2023/10/06 12:10:32;;;;;;;10.00;3.80;;;28.30;44.10;;;;;;5074601;28;20495;-56
2023/10/06 12:12:59;;;;;;;10.87;3.20;;;28.70;44.50;;;;;;5074740;28;20502;-57
2023/10/06 12:15:29;;;;;;;8.77;3.70;;;29.10;42.90;;;;;;5074570;28;20448;-57
2023/10/06 12:17:56;;;;;;;9.93;3.43;;;29.10;40.30;;;;;;5074443;28;20969;-57
2023/10/06 12:20:24;;;;;;;6.73;3.40;;;29.10;41.00;;;;;;5074508;28;20551;-57
2023/10/06 12:22:53;;;;;;;6.20;2.80;;;28.60;39.70;;;;;;5074534;28;20477;-57
2023/10/06 12:25:23;;;;;;;5.70;3.20;;;28.60;40.00;;;;;;5074741;28;20531;-57
2023/10/06 12:27:50;;;;;;;5.80;3.33;;;29.00;39.60;;;;;;5074435;28;20509;-57
2023/10/06 12:30:17;;;;;;;10.23;3.07;;;29.10;39.10;;;;;;5073535;28;20514;-57
2023/10/06 12:32:45;;;;;;;6.10;3.00;;;29.40;39.40;;;;;;5074380;28;20476;-57
2023/10/06 12:35:17;;;;;;;8.80;3.90;;;29.30;38.70;;;;;;5074322;28;20502;-56
2023/10/06 12:37:45;;;;;;;6.90;3.33;;;29.30;40.40;;;;;;5074238;28;20436;-57
2023/10/06 12:40:17;;;;;;;6.70;3.10;;;28.60;39.10;;;;;;5073839;28;20900;-57
2023/10/06 12:42:44;;;;;;;8.03;3.60;;;28.50;40.70;;;;;;5073881;28;20921;-57
2023/10/06 12:45:18;;;;;;;8.53;3.33;;;28.60;40.90;;;;;;5074161;28;20448;-56
2023/10/06 12:47:46;;;;;;;9.07;3.30;;;28.80;41.00;;;;;;5075479;28;20453;-57
2023/10/06 12:50:16;;;;;;;8.03;3.50;;;28.80;42.00;;;;;;5074987;28;20484;-57
2023/10/06 12:52:44;;;;;;;8.50;4.07;;;29.20;41.60;;;;;;5074772;28;20425;-57
2023/10/06 12:55:12;;;;;;;9.43;3.53;;;29.10;40.80;;;;;;5074107;28;20480;-57